ADVERTISEMENT

iOS app on App Store Android app on Google Play

2018 \ Turkey Trot LA - November 22, 2018

Notes Pages Download Filter By
  1 2 3 4 5 6 7 8 9 10 [11] 12 13 14 15 16 17 18 19 20 21 22 23 24 25 26 27 28 29 30




Keyword Exact  
Division

Bib First Name Last Name City State Total Time Division Division Place Overall
2803 Rebecca Brockmeyer Long Beach CA 00:32:40 35-39 F 53 1001
3087 Gracie Felsenthal San Francisco CA 00:32:41 12-13 F 15 1002
3133 Kristin Prins Los Angeles CA 00:32:41 35-39 F 54 1003
4835 Ethan Hong Los Angeles CA 00:32:41 10-11 M 15 1004
3230 Honni Phillips Los Angeles CA 00:32:41 30-34 F 90 1005
2332 Rebecca Graves Los Angeles CA 00:32:42 20-24 F 54 1006
2601 Olimpia Castillo Cypress CA 00:32:44 30-34 M 92 1007
5237 Edwin Avarca San Jose CA 00:32:44 30-34 M 93 1008
3556 Lisa Enriquez North Hollywood CA 00:32:44 14-15 F 12 1009
3266 Charles Taylor Baltimore OH 00:32:44 25-29 M 95 1010
2508 Jennifer Kayano Culver City CA 00:32:44 45-49 F 28 1011
2079 Georgia Luber Los Angeles CA 00:32:44 45-49 F 29 1012
4652 Laura Denning San Jose CA 00:32:46 35-39 F 55 1013
4912 Michael Ngo Valencia CA 00:32:46 50-54 M 38 1014
4651 Allison Lammers Pasadena CA 00:32:46 30-34 F 91 1015
3401 Rosa Choplick Glendora CA 00:32:46 50-54 F 21 1016
5248 Candy Miranda Alhambra CA 00:32:47 30-34 F 92 1017
2626 Stacy Lynn Altadena CA 00:32:47 40-44 F 37 1018
3874 Bijan Karimi Corte Madera CA 00:32:48 45-49 M 46 1019
2211 Tom Smaldone Los Angeles CA 00:32:48 30-34 M 94 1020
4325 Devon Dodds Valley Village CA 00:32:48 25-29 M 96 1021
2777 Octavio Martinez Sylmar CA 00:32:49 35-39 M 71 1022
5106 Kenia Espinoza Los Angeles CA 00:32:49 25-29 F 79 1023
3752 Crystal Coatney Los Angeles CA 00:32:49 35-39 F 56 1024
4128 John Hirsch Los Angeles CA 00:32:49 30-34 M 95 1025
3905 Kimberly Cutler Los Angeles CA 00:32:50 30-34 F 93 1026
3441 Mike Griffith Norwalk CA 00:32:50 60-64 M 11 1027
2414 Maggie Purcell Santa Monica CA 00:32:50 12-13 F 16 1028
2820 Jai Armstrong Los Angeles CA 00:32:50 12-13 M 25 1029
2413 Andrea Purcell Santa Monica CA 00:32:50 45-49 F 30 1030
5159 Viridiana De La Riva Pasadena CA 00:32:51 30-34 F 94 1031
3795 Dayan Roque Los Angeles CA 00:32:51 16-19 F 24 1032
4686 Areli Pena Canyon Country CA 00:32:51 30-34 F 95 1033
3328 Claudia Lauterback La Crescenta CA 00:32:52 45-49 F 31 1034
4172 Maria Juarez Compton CA 00:32:53 45-49 F 32 1035
5141 Ernesto Prado Sylmar CA 00:32:53 30-34 M 96 1036
4007 Jenny McLeod Glendale CA 00:32:54 35-39 F 57 1037
3607 Bret McLeod Glendale CA 00:32:54 40-44 M 42 1038
4478 Chriselda C Los Angeles CA 00:32:54 40-44 F 38 1039
4394 Michal Mahler Los Angeles CA 00:32:55 10-11 M 16 1040
3279 Boris Li Elk Grove CA 00:32:55 30-34 M 97 1041
4572 Maritza De La Cruz Mission Hills CA 00:32:55 30-34 F 96 1042
484 Olga Felton Playa Del Rey CA 00:32:55 55-59 F 8 1043
3231 Sarah Hernandez Hawthorne CA 00:32:56 30-34 F 97 1044
3809 Brandee Sosa -- 00:32:56 30-34 F 98 1045
2034 Elisa Trujillo Hialeah FL 00:32:56 30-34 F 99 1046
840 Robin Imbilli Redondo Beach CA 00:32:58 60-64 F 9 1047
3381 Maya Kalinowski Los Angeles CA 00:32:58 30-34 F 100 1048
4383 Carole Ann Balkcom Sunland CA 00:32:59 14-15 F 13 1049
3645 VIRGINIA ESTRADA North Las Vegas NV 00:32:59 25-29 F 80 1050
4661 Almer Santiago Canyon Country CA 00:33:00 45-49 M 47 1051
3386 Charlyna Johnson-Stark Denver CO 00:33:01 25-29 F 81 1052
4684 Annette Jaurequi Los Angeles CA 00:33:01 40-44 F 39 1053
3385 jeanne stark Marengo IL 00:33:02 50-54 F 22 1054
3383 Dylan Stark Chicago IL 00:33:02 30-34 M 98 1055
4103 Marcela Vargas Downey CA 00:33:02 35-39 F 58 1056
1354 Brooke Marston Culver City CA 00:33:04 35-39 F 59 1057
4754 JULIO MORA Los Angeles CA 00:33:04 25-29 M 97 1058
4752 MARIA CRUZ Los Angeles CA 00:33:05 25-29 F 82 1059
4602 Kelly Bilbie 00:33:07 35-39 F 60 1060
2660 Ethan Dumper Playa Vista CA 00:33:07 1-9 M 21 1061
2442 Lizeth Urbina Culver City CA 00:33:08 30-34 F 101 1062
3342 Michelle Esquibel-Sanchez Norwalk CA 00:33:08 45-49 F 33 1063
3271 Biz Tanner Los Angeles CA 00:33:08 30-34 F 102 1064
2344 Robert Hickam South Pasadena CA 00:33:10 50-54 M 39 1065
3986 Nili Wexler Los Angeles CA 00:33:11 35-39 F 61 1066
2556 Hunter Paglia Pittsburgh PA 00:33:11 1-9 M 22 1067
2643 A.I. Ruiz-Sanabria Palmdale CA 00:33:13 30-34 F 103 1068
4563 Steven Farneth Los Angeles CA 00:33:14 40-44 M 43 1069
3288 Kellie Swindell Los Angeles CA 00:33:16 30-34 F 104 1070
3972 Christian Lopez Whittier CA 00:33:16 20-24 M 43 1071
2823 Sevada Asheghian Tujunga CA 00:33:16 35-39 M 72 1072
3842 Thena Urquidez Tarzana CA 00:33:16 35-39 F 62 1073
3289 Megan Swindell Los Angeles CA 00:33:16 30-34 F 105 1074
4305 Sarah D'sylva Brooklyn NY 00:33:17 25-29 F 83 1075
4562 Nicole Emanuele New York NY 00:33:17 30-34 F 106 1076
2529 Melanie Mejia Northridge CA 00:33:17 20-24 F 55 1077
4730 Stan Woerner Martinez CA 00:33:18 55-59 M 17 1078
4343 Lindsey Robertson Los Angeles CA 00:33:18 50-54 F 23 1079
4279 Ryan Olesky Marina Del Rey CA 00:33:18 35-39 M 73 1080
3602 Jennifer Yoshida La Canada Flintridge CA 00:33:18 50-54 F 24 1081
3603 Scott Yoshida La Canada Flintridge CA 00:33:19 60-64 M 12 1082
3172 Esteban Guevara Montebello CA 00:33:19 35-39 M 74 1083
5000 rodrigo gil Gardena CA 00:33:19 55-59 M 18 1084
2557 Trevor Paglia Pittsburgh PA 00:33:19 10-11 M 17 1085
3604 Matthew Yoshida La Canada Flintridge CA 00:33:19 14-15 M 19 1086
3805 Victoria Trujillo Temple City CA 00:33:20 45-49 F 34 1087
2285 Isabella Daniels-Campos Los Angeles CA 00:33:20 20-24 F 56 1088
4097 Joe Rojas Los Angeles CA 00:33:20 16-19 M 33 1089
4380 Cynthia Balkcom Sunland CA 00:33:20 50-54 F 25 1090
4819 Jeanette Perales Los Angeles CA 00:33:21 35-39 F 63 1091
2953 Richard Busch Los Angeles CA 00:33:22 40-44 M 44 1092
2801 Audrey Johnson Long Beach CA 00:33:23 10-11 F 16 1093
2354 Krystle Busch Los Angeles CA 00:33:23 35-39 F 64 1094
4680 Mike Livanos Los Angeles CA 00:33:24 35-39 M 75 1095
4681 Melissa Livanos Chicago IL 00:33:25 35-39 F 65 1096
2912 Stephanie Crehan Inglewood CA 00:33:25 35-39 F 66 1097
2284 Dominic Daniels-Campos Los Angeles CA 00:33:25 16-19 M 34 1098
3584 Robert Olivarez Alhambra CA 00:33:26 25-29 M 98 1099
3582 Kristin Olivarez Alhambra CA 00:33:26 30-34 F 107 1100
Notes Pages Download Filter By
  1 2 3 4 5 6 7 8 9 10 [11] 12 13




Keyword Exact  
Division

Bib First Name Last Name City State Total Time Division Division Place Overall
1218 Angelica Mares Bell Gardens CA 01:10:09 45-49 F 31 1001
1027 Miya Joo Buena Park CA 01:10:10 25-29 F 105 1002
839 Deb Fort Hawthorne CA 01:10:12 55-59 F 7 1003
238 David Ischayek Beverly Hills CA 01:10:13 35-39 M 87 1004
837 Mary K Balding Redondo Beach CA 01:10:13 50-54 F 19 1005
924 Michael Salazar Los Angeles CA 01:10:20 45-49 M 50 1006
501 BRIDA BRANDO Redondo Beach CA 01:10:24 20-24 F 35 1007
956 Brendan Miguel Los Angeles CA 01:10:26 12-13 M 8 1008
955 Martin Miguel Los Angeles CA 01:10:26 40-44 M 90 1009
1238 luisa mendoza Hawthorne CA 01:10:27 40-44 F 62 1010
1388 Danilo Gonzalez Los Angeles CA 01:10:27 55-59 M 19 1011
915 Amanda Hernandez Rancho Cucamonga CA 01:10:28 25-29 F 106 1012
276 Daniella Cota Alhambra CA 01:10:32 45-49 F 32 1013
682 Marc Glassberg San Francisco CA 01:10:32 40-44 M 91 1014
980 Derrick Whatley Los Angeles CA 01:10:35 20-24 M 28 1015
1188 Hoang Nguyen Pomona CA 01:10:38 30-34 F 106 1016
4407 Mary Donahue Redondo Beach CA 01:10:39 40-44 F 63 1017
967 Jasmine Serna Montebello CA 01:10:40 30-34 F 107 1018
999 Gary Castaldo Los Angeles CA 01:10:40 60-64 M 16 1019
1181 Mireya Arellano Aliso Viejo CA 01:10:48 45-49 F 33 1020
288 Carlos Soto Los Angeles CA 01:10:48 35-39 M 88 1021
3933 Elise Provencio El Monte CA 01:10:53 30-34 F 108 1022
422 Kim Elliott Playa Del Rey CA 01:10:53 50-54 F 20 1023
434 Lizette Vargas Los Angeles CA 01:10:54 30-34 F 109 1024
1338 Anabel Salazar Los Angeles CA 01:10:55 40-44 F 64 1025
225 Eunice Oh Los Angeles CA 01:10:56 35-39 F 82 1026
236 Annie Oh San Diego CA 01:10:57 30-34 F 110 1027
603 Mauricio Elias Martinez Canyon Country CA 01:10:58 30-34 M 124 1028
566 Erika Carbonell Buena Park CA 01:11:03 30-34 F 111 1029
1084 Cassie R Cullins Venice CA 01:11:03 30-34 F 112 1030
176 Natalie Cerezo Los Angeles CA 01:11:08 25-29 F 107 1031
417 Dennis Aquino Pacoima CA 01:11:10 25-29 M 69 1032
416 Jeannette Zepeda Pacoima CA 01:11:10 25-29 F 108 1033
116 Ranica Leal Victorville CA 01:11:17 45-49 F 34 1034
483 Nathan Felton Brooklyn NY 01:11:18 25-29 M 70 1035
700 Rosemary Glading Delray Beach FL 01:11:18 70-99 M 2 1036
484 Olga Felton Playa Del Rey CA 01:11:19 55-59 F 8 1037
1070 John Houser Hacienda Heights CA 01:11:23 35-39 M 89 1038
738 Patrice Richardson Los Angeles CA 01:11:26 25-29 F 109 1039
141 Keri Byrne Palmdale CA 01:11:26 45-49 F 35 1040
1230 Gesenia Macias Valencia CA 01:11:27 40-44 F 65 1041
128 Will Shin South Pasadena CA 01:11:38 14-15 M 7 1042
127 Phil Shin South Pasadena CA 01:11:38 45-49 M 51 1043
634 Katherine Anderton 01:11:43 35-39 F 83 1044
1060 Christina Diaz Burbank CA 01:11:43 40-44 F 66 1045
365 Renata Pastrana Los Angeles CA 01:11:44 35-39 F 84 1046
947 PATRICIA AGUILAR Los Angeles CA 01:11:46 50-54 F 21 1047
412 Laura Cambonchi Los Angeles CA 01:11:48 30-34 F 113 1048
1099 Griselda Rodriguez Los Angeles CA 01:11:56 25-29 F 110 1049
910 Mary Forgione Los Angeles CA 01:12:02 60-64 F 9 1050
1085 Efrain Hernandez Los Angeles CA 01:12:03 40-44 M 92 1051
499 Rodrick Hill San Bernardino CA 01:12:05 45-49 M 52 1052
497 Rodrick Hill San Bernardino CA 01:12:05 45-49 M 53 1053
3332 Christianna Martin Studio City CA 01:12:18 35-39 F 85 1054
1017 Zach Walk Inglewood CA 01:12:19 25-29 M 71 1055
1268 Geselle Sarmiento Maywood CA 01:12:21 25-29 F 111 1056
405 Daniela Cortes Los Angeles CA 01:12:22 20-24 F 36 1057
1330 Eric L Los Angeles CA 01:12:23 30-34 M 125 1058
681 Sandy Glassberg San Francisco CA 01:12:26 35-39 F 86 1059
1175 Marvin Centeno -- 01:12:29 40-44 M 93 1060
1332 Mila Ream Arcadia CA 01:12:30 35-39 F 87 1061
1045 Lisa Karwoski Los Angeles CA 01:12:33 30-34 F 114 1062
548 Lusatsin Kyupelyan Glendale CA 01:12:34 30-34 F 115 1063
898 Joy Turner Los Angeles CA 01:12:34 30-34 F 116 1064
547 Lana Konovalova San Diego CA 01:12:35 30-34 F 117 1065
206 Chelsea Block Greensboro NC 01:12:35 25-29 F 112 1066
687 Celia Ojeda Chino CA 01:12:41 55-59 F 9 1067
1272 Alfredo Sarmiento Maywood CA 01:12:41 25-29 M 72 1068
1176 Glendy Sanchez Los Angeles CA 01:12:41 35-39 F 88 1069
207 Neal Heston Oklahoma City OK 01:12:43 30-34 M 126 1070
360 Jeremy Wiss Los Angeles CA 01:12:43 35-39 M 90 1071
809 Heli Zain Serrato Los Angeles CA 01:12:44 30-34 M 127 1072
1247 Roberto Ramirez Bell Gardens CA 01:12:49 12-13 M 9 1073
911 David Ramirez -- 01:12:51 60-64 M 17 1074
1100 Christia Williams Los Angeles CA 01:12:53 30-34 F 118 1075
713 Eric Correa Los Angeles CA 01:12:53 25-29 M 73 1076
676 Brandon Johnson Los Angeles CA 01:12:53 30-34 M 128 1077
990 Ana Hinojosa Los Angeles CA 01:12:56 30-34 F 119 1078
3117 Stephen Chua Los Angeles CA 01:13:10 35-39 M 91 1079
130 Diane Urias Bell Gardens CA 01:13:23 20-24 F 37 1080
1248 Fabio Ramirez Bell Gardens CA 01:13:25 12-13 M 10 1081
802 Matthew Gonzalez Van Nuys CA 01:13:26 10-11 M 3 1082
803 Maria Chavez Van Nuys CA 01:13:30 45-49 F 36 1083
1390 Katy Groskin Los Angeles CA 01:13:32 35-39 F 89 1084
652 Patricia Orozco Los Angeles CA 01:13:37 25-29 F 113 1085
654 Jorge Gavira Compton CA 01:13:38 25-29 M 74 1086
651 Leslie Cano Los Angeles CA 01:13:39 16-19 F 10 1087
653 Denise Cano Los Angeles CA 01:13:39 12-13 F 3 1088
896 Veronica Rodriguez Whittier CA 01:13:41 30-34 F 120 1089
231 Elaine Herman Chicago IL 01:13:41 40-44 F 67 1090
126 Kaitlyn Lenik Mission Hills CA 01:13:44 25-29 F 114 1091
710 Harutun Ablabutyan North Hollywood CA 01:13:48 25-29 M 75 1092
641 Rae Duarte Los Angeles CA 01:13:52 30-34 F 121 1093
1090 Coralie Clonch Los Angeles CA 01:13:53 25-29 F 115 1094
1184 Brooke Michaels Lancaster CA 01:13:56 16-19 F 11 1095
1182 Jacob Jones Lancaster CA 01:13:56 20-24 M 29 1096
765 Eleanor Pao Sherman Oaks CA 01:14:00 35-39 F 90 1097
770 Cindy Monterrosa Los Angeles CA 01:14:14 25-29 F 116 1098
1236 Jorge Guillen West Covina CA 01:14:17 50-54 M 32 1099
324 John Riel Valley Village CA 01:14:19 55-59 M 20 1100